sensor_id;sensor_type;location;lat;lon;timestamp;P1;durP1;ratioP1;P2;durP2;ratioP2
9270;SDS011;4673;53.458;9.940;2024-03-07T00:02:17;27.03;;;26.83;;
9270;SDS011;4673;53.458;9.940;2024-03-07T00:04:43;26.27;;;26.07;;
9270;SDS011;4673;53.458;9.940;2024-03-07T00:07:09;23.90;;;23.70;;
9270;SDS011;4673;53.458;9.940;2024-03-07T00:09:35;24.83;;;24.63;;
9270;SDS011;4673;53.458;9.940;2024-03-07T00:12:02;22.47;;;22.27;;
9270;SDS011;4673;53.458;9.940;2024-03-07T00:14:28;24.00;;;23.80;;
9270;SDS011;4673;53.458;9.940;2024-03-07T00:16:57;24.33;;;24.13;;
9270;SDS011;4673;53.458;9.940;2024-03-07T00:19:26;23.23;;;23.03;;
9270;SDS011;4673;53.458;9.940;2024-03-07T00:21:52;21.20;;;21.03;;
9270;SDS011;4673;53.458;9.940;2024-03-07T00:24:19;23.40;;;23.20;;
9270;SDS011;4673;53.458;9.940;2024-03-07T00:26:45;19.83;;;19.73;;
9270;SDS011;4673;53.458;9.940;2024-03-07T00:29:11;21.53;;;21.33;;
9270;SDS011;4673;53.458;9.940;2024-03-07T00:31:37;21.70;;;21.50;;
9270;SDS011;4673;53.458;9.940;2024-03-07T00:34:02;21.47;;;21.27;;
9270;SDS011;4673;53.458;9.940;2024-03-07T00:36:28;22.63;;;22.43;;
9270;SDS011;4673;53.458;9.940;2024-03-07T00:38:53;23.10;;;22.90;;
9270;SDS011;4673;53.458;9.940;2024-03-07T00:41:19;21.57;;;21.47;;
9270;SDS011;4673;53.458;9.940;2024-03-07T00:43:45;23.03;;;22.83;;
9270;SDS011;4673;53.458;9.940;2024-03-07T00:46:11;21.63;;;21.53;;
9270;SDS011;4673;53.458;9.940;2024-03-07T00:48:37;21.77;;;21.57;;
9270;SDS011;4673;53.458;9.940;2024-03-07T00:51:03;21.47;;;21.37;;
9270;SDS011;4673;53.458;9.940;2024-03-07T00:53:29;22.37;;;22.17;;
9270;SDS011;4673;53.458;9.940;2024-03-07T00:55:55;19.77;;;19.67;;
9270;SDS011;4673;53.458;9.940;2024-03-07T00:58:21;19.40;;;19.30;;
9270;SDS011;4673;53.458;9.940;2024-03-07T01:00:47;21.17;;;20.97;;
9270;SDS011;4673;53.458;9.940;2024-03-07T01:03:13;21.27;;;21.10;;
9270;SDS011;4673;53.458;9.940;2024-03-07T01:05:43;19.97;;;19.87;;
9270;SDS011;4673;53.458;9.940;2024-03-07T01:08:08;19.77;;;19.67;;
9270;SDS011;4673;53.458;9.940;2024-03-07T01:10:34;19.63;;;19.53;;
9270;SDS011;4673;53.458;9.940;2024-03-07T01:13:00;19.87;;;19.67;;
9270;SDS011;4673;53.458;9.940;2024-03-07T01:15:30;18.17;;;18.03;;
9270;SDS011;4673;53.458;9.940;2024-03-07T01:17:57;18.70;;;18.60;;
9270;SDS011;4673;53.458;9.940;2024-03-07T01:20:23;17.07;;;16.97;;
9270;SDS011;4673;53.458;9.940;2024-03-07T01:22:50;16.63;;;16.53;;
9270;SDS011;4673;53.458;9.940;2024-03-07T01:25:17;16.03;;;15.93;;
9270;SDS011;4673;53.458;9.940;2024-03-07T01:27:43;15.70;;;15.60;;
9270;SDS011;4673;53.458;9.940;2024-03-07T01:30:09;15.27;;;15.17;;
9270;SDS011;4673;53.458;9.940;2024-03-07T01:32:35;15.07;;;14.97;;
9270;SDS011;4673;53.458;9.940;2024-03-07T01:35:01;13.70;;;13.60;;
9270;SDS011;4673;53.458;9.940;2024-03-07T01:37:26;15.77;;;15.67;;
9270;SDS011;4673;53.458;9.940;2024-03-07T01:39:53;15.00;;;14.90;;
9270;SDS011;4673;53.458;9.940;2024-03-07T01:42:19;14.73;;;14.63;;
9270;SDS011;4673;53.458;9.940;2024-03-07T01:44:45;13.93;;;13.83;;
9270;SDS011;4673;53.458;9.940;2024-03-07T01:47:10;14.50;;;14.40;;
9270;SDS011;4673;53.458;9.940;2024-03-07T01:49:37;14.07;;;13.97;;
9270;SDS011;4673;53.458;9.940;2024-03-07T01:52:04;14.97;;;14.87;;
9270;SDS011;4673;53.458;9.940;2024-03-07T01:54:30;14.43;;;14.33;;
9270;SDS011;4673;53.458;9.940;2024-03-07T01:56:56;15.17;;;15.07;;
9270;SDS011;4673;53.458;9.940;2024-03-07T01:59:23;15.30;;;15.20;;
9270;SDS011;4673;53.458;9.940;2024-03-07T02:01:49;15.10;;;15.00;;
9270;SDS011;4673;53.458;9.940;2024-03-07T02:04:15;14.10;;;14.00;;
9270;SDS011;4673;53.458;9.940;2024-03-07T02:06:41;16.60;;;16.50;;
9270;SDS011;4673;53.458;9.940;2024-03-07T02:09:07;17.00;;;16.80;;
9270;SDS011;4673;53.458;9.940;2024-03-07T02:11:32;15.60;;;15.50;;
9270;SDS011;4673;53.458;9.940;2024-03-07T02:13:58;15.37;;;15.27;;
9270;SDS011;4673;53.458;9.940;2024-03-07T02:16:24;15.23;;;15.13;;
9270;SDS011;4673;53.458;9.940;2024-03-07T02:18:50;15.47;;;15.27;;
9270;SDS011;4673;53.458;9.940;2024-03-07T02:21:16;15.63;;;15.53;;
9270;SDS011;4673;53.458;9.940;2024-03-07T02:23:41;15.50;;;15.40;;
9270;SDS011;4673;53.458;9.940;2024-03-07T02:26:07;16.70;;;16.60;;
9270;SDS011;4673;53.458;9.940;2024-03-07T02:28:35;16.47;;;16.27;;
9270;SDS011;4673;53.458;9.940;2024-03-07T02:31:01;17.07;;;16.97;;
9270;SDS011;4673;53.458;9.940;2024-03-07T02:33:27;18.03;;;17.93;;
9270;SDS011;4673;53.458;9.940;2024-03-07T02:35:52;18.20;;;18.10;;
9270;SDS011;4673;53.458;9.940;2024-03-07T02:38:18;17.83;;;17.70;;
9270;SDS011;4673;53.458;9.940;2024-03-07T02:40:44;17.30;;;17.10;;
9270;SDS011;4673;53.458;9.940;2024-03-07T02:43:11;18.23;;;18.13;;
9270;SDS011;4673;53.458;9.940;2024-03-07T02:45:37;19.67;;;19.47;;
9270;SDS011;4673;53.458;9.940;2024-03-07T02:48:03;18.27;;;18.17;;
9270;SDS011;4673;53.458;9.940;2024-03-07T02:50:32;18.87;;;18.77;;
9270;SDS011;4673;53.458;9.940;2024-03-07T02:52:58;19.90;;;19.70;;
9270;SDS011;4673;53.458;9.940;2024-03-07T02:55:23;20.47;;;20.27;;
9270;SDS011;4673;53.458;9.940;2024-03-07T02:57:49;21.17;;;20.97;;
9270;SDS011;4673;53.458;9.940;2024-03-07T03:00:15;20.43;;;20.30;;
9270;SDS011;4673;53.458;9.940;2024-03-07T03:02:51;20.23;;;20.03;;
9270;SDS011;4673;53.458;9.940;2024-03-07T03:05:18;22.20;;;22.00;;
9270;SDS011;4673;53.458;9.940;2024-03-07T03:07:44;20.63;;;20.43;;
9270;SDS011;4673;53.458;9.940;2024-03-07T03:10:18;19.87;;;19.73;;
9270;SDS011;4673;53.458;9.940;2024-03-07T03:12:54;21.80;;;21.60;;
9270;SDS011;4673;53.458;9.940;2024-03-07T03:15:23;22.37;;;22.17;;
9270;SDS011;4673;53.458;9.940;2024-03-07T03:17:48;21.10;;;21.00;;
9270;SDS011;4673;53.458;9.940;2024-03-07T03:20:14;21.17;;;20.97;;
9270;SDS011;4673;53.458;9.940;2024-03-07T03:22:49;22.10;;;21.90;;
9270;SDS011;4673;53.458;9.940;2024-03-07T03:25:17;19.30;;;19.20;;
9270;SDS011;4673;53.458;9.940;2024-03-07T03:27:43;19.17;;;19.07;;
9270;SDS011;4673;53.458;9.940;2024-03-07T03:30:09;20.20;;;20.03;;
9270;SDS011;4673;53.458;9.940;2024-03-07T03:32:38;19.30;;;19.10;;
9270;SDS011;4673;53.458;9.940;2024-03-07T03:35:04;19.57;;;19.47;;
9270;SDS011;4673;53.458;9.940;2024-03-07T03:37:30;21.00;;;20.80;;
9270;SDS011;4673;53.458;9.940;2024-03-07T03:39:56;19.67;;;19.47;;
9270;SDS011;4673;53.458;9.940;2024-03-07T03:42:22;20.07;;;19.87;;
9270;SDS011;4673;53.458;9.940;2024-03-07T03:44:47;17.47;;;17.37;;
9270;SDS011;4673;53.458;9.940;2024-03-07T03:47:13;17.93;;;17.83;;
9270;SDS011;4673;53.458;9.940;2024-03-07T03:49:39;19.23;;;19.13;;
9270;SDS011;4673;53.458;9.940;2024-03-07T03:52:04;19.60;;;19.50;;
9270;SDS011;4673;53.458;9.940;2024-03-07T03:54:30;18.57;;;18.47;;
9270;SDS011;4673;53.458;9.940;2024-03-07T03:56:56;20.43;;;20.23;;
9270;SDS011;4673;53.458;9.940;2024-03-07T03:59:23;18.57;;;18.43;;
9270;SDS011;4673;53.458;9.940;2024-03-07T04:01:49;19.00;;;18.90;;
9270;SDS011;4673;53.458;9.940;2024-03-07T04:04:14;18.93;;;18.83;;
9270;SDS011;4673;53.458;9.940;2024-03-07T04:06:40;20.27;;;20.07;;
9270;SDS011;4673;53.458;9.940;2024-03-07T04:09:06;20.67;;;20.47;;
9270;SDS011;4673;53.458;9.940;2024-03-07T04:11:32;17.37;;;17.27;;
9270;SDS011;4673;53.458;9.940;2024-03-07T04:13:57;16.67;;;16.57;;
9270;SDS011;4673;53.458;9.940;2024-03-07T04:16:23;15.53;;;15.43;;
9270;SDS011;4673;53.458;9.940;2024-03-07T04:18:49;18.47;;;18.37;;
9270;SDS011;4673;53.458;9.940;2024-03-07T04:21:14;16.60;;;16.50;;
9270;SDS011;4673;53.458;9.940;2024-03-07T04:23:40;18.57;;;18.47;;
9270;SDS011;4673;53.458;9.940;2024-03-07T04:26:06;17.17;;;17.07;;
9270;SDS011;4673;53.458;9.940;2024-03-07T04:28:33;15.40;;;15.30;;
9270;SDS011;4673;53.458;9.940;2024-03-07T04:30:59;15.50;;;15.40;;
9270;SDS011;4673;53.458;9.940;2024-03-07T04:33:25;16.13;;;16.03;;
9270;SDS011;4673;53.458;9.940;2024-03-07T04:35:51;16.97;;;16.77;;
9270;SDS011;4673;53.458;9.940;2024-03-07T04:38:17;14.67;;;14.57;;
9270;SDS011;4673;53.458;9.940;2024-03-07T04:40:43;15.57;;;15.47;;
9270;SDS011;4673;53.458;9.940;2024-03-07T04:43:08;14.63;;;14.53;;
9270;SDS011;4673;53.458;9.940;2024-03-07T04:45:34;15.63;;;15.53;;
9270;SDS011;4673;53.458;9.940;2024-03-07T04:48:00;14.37;;;14.27;;
9270;SDS011;4673;53.458;9.940;2024-03-07T04:50:26;14.77;;;14.67;;
9270;SDS011;4673;53.458;9.940;2024-03-07T04:52:51;14.13;;;14.03;;
9270;SDS011;4673;53.458;9.940;2024-03-07T04:55:18;14.17;;;14.07;;
9270;SDS011;4673;53.458;9.940;2024-03-07T04:57:44;14.00;;;13.90;;
9270;SDS011;4673;53.458;9.940;2024-03-07T05:00:10;14.70;;;14.60;;
9270;SDS011;4673;53.458;9.940;2024-03-07T05:02:42;13.67;;;13.57;;
9270;SDS011;4673;53.458;9.940;2024-03-07T05:05:09;14.13;;;14.03;;
9270;SDS011;4673;53.458;9.940;2024-03-07T05:07:35;13.33;;;13.23;;
9270;SDS011;4673;53.458;9.940;2024-03-07T05:10:01;15.23;;;15.13;;
9270;SDS011;4673;53.458;9.940;2024-03-07T05:12:28;13.67;;;13.57;;
9270;SDS011;4673;53.458;9.940;2024-03-07T05:14:53;13.63;;;13.53;;
9270;SDS011;4673;53.458;9.940;2024-03-07T05:17:19;13.00;;;12.90;;
9270;SDS011;4673;53.458;9.940;2024-03-07T05:19:44;15.13;;;15.03;;
9270;SDS011;4673;53.458;9.940;2024-03-07T05:22:10;15.37;;;15.27;;
9270;SDS011;4673;53.458;9.940;2024-03-07T05:24:40;13.53;;;13.43;;
9270;SDS011;4673;53.458;9.940;2024-03-07T05:27:07;13.90;;;13.80;;
9270;SDS011;4673;53.458;9.940;2024-03-07T05:29:36;13.97;;;13.87;;
9270;SDS011;4673;53.458;9.940;2024-03-07T05:32:21;13.50;;;13.40;;
9270;SDS011;4673;53.458;9.940;2024-03-07T05:34:53;13.27;;;13.17;;
9270;SDS011;4673;53.458;9.940;2024-03-07T05:37:19;13.63;;;13.53;;
9270;SDS011;4673;53.458;9.940;2024-03-07T05:39:47;13.37;;;13.27;;
9270;SDS011;4673;53.458;9.940;2024-03-07T05:42:13;13.70;;;13.60;;
9270;SDS011;4673;53.458;9.940;2024-03-07T05:44:39;11.93;;;11.83;;
9270;SDS011;4673;53.458;9.940;2024-03-07T05:47:04;13.57;;;13.47;;
9270;SDS011;4673;53.458;9.940;2024-03-07T05:49:32;13.33;;;13.23;;
9270;SDS011;4673;53.458;9.940;2024-03-07T05:51:58;12.73;;;12.63;;
9270;SDS011;4673;53.458;9.940;2024-03-07T05:54:23;13.53;;;13.43;;
9270;SDS011;4673;53.458;9.940;2024-03-07T05:56:49;12.97;;;12.87;;
9270;SDS011;4673;53.458;9.940;2024-03-07T05:59:15;12.93;;;12.83;;
9270;SDS011;4673;53.458;9.940;2024-03-07T06:01:42;12.03;;;11.93;;
9270;SDS011;4673;53.458;9.940;2024-03-07T06:04:09;12.40;;;12.30;;
9270;SDS011;4673;53.458;9.940;2024-03-07T06:06:35;12.47;;;12.37;;
9270;SDS011;4673;53.458;9.940;2024-03-07T06:09:02;12.67;;;12.57;;
9270;SDS011;4673;53.458;9.940;2024-03-07T06:11:36;12.43;;;12.33;;
9270;SDS011;4673;53.458;9.940;2024-03-07T06:14:03;11.80;;;11.70;;
9270;SDS011;4673;53.458;9.940;2024-03-07T06:16:33;11.87;;;11.77;;
9270;SDS011;4673;53.458;9.940;2024-03-07T06:19:01;12.43;;;12.33;;
9270;SDS011;4673;53.458;9.940;2024-03-07T06:21:28;12.73;;;12.63;;
9270;SDS011;4673;53.458;9.940;2024-03-07T06:23:55;12.63;;;12.53;;
9270;SDS011;4673;53.458;9.940;2024-03-07T06:26:28;11.40;;;11.30;;
9270;SDS011;4673;53.458;9.940;2024-03-07T06:29:06;12.70;;;12.60;;
9270;SDS011;4673;53.458;9.940;2024-03-07T06:31:32;12.90;;;12.80;;
9270;SDS011;4673;53.458;9.940;2024-03-07T06:33:59;12.73;;;12.63;;
9270;SDS011;4673;53.458;9.940;2024-03-07T06:36:25;11.80;;;11.70;;
9270;SDS011;4673;53.458;9.940;2024-03-07T06:38:51;12.80;;;12.73;;
9270;SDS011;4673;53.458;9.940;2024-03-07T06:41:17;12.33;;;12.23;;
9270;SDS011;4673;53.458;9.940;2024-03-07T06:43:45;11.23;;;11.13;;
9270;SDS011;4673;53.458;9.940;2024-03-07T06:46:20;13.60;;;13.50;;
9270;SDS011;4673;53.458;9.940;2024-03-07T06:48:45;13.73;;;13.63;;
9270;SDS011;4673;53.458;9.940;2024-03-07T06:51:14;11.13;;;11.13;;
9270;SDS011;4673;53.458;9.940;2024-03-07T06:53:42;13.83;;;13.73;;
9270;SDS011;4673;53.458;9.940;2024-03-07T06:56:17;12.97;;;12.87;;
9270;SDS011;4673;53.458;9.940;2024-03-07T06:58:43;13.17;;;13.07;;
9270;SDS011;4673;53.458;9.940;2024-03-07T07:01:11;13.20;;;13.10;;
9270;SDS011;4673;53.458;9.940;2024-03-07T07:03:40;14.13;;;14.03;;
9270;SDS011;4673;53.458;9.940;2024-03-07T07:06:09;11.93;;;11.83;;
9270;SDS011;4673;53.458;9.940;2024-03-07T07:08:35;11.77;;;11.77;;
9270;SDS011;4673;53.458;9.940;2024-03-07T07:11:07;12.77;;;12.67;;
9270;SDS011;4673;53.458;9.940;2024-03-07T07:13:43;12.17;;;12.07;;
9270;SDS011;4673;53.458;9.940;2024-03-07T07:16:11;12.17;;;12.07;;
9270;SDS011;4673;53.458;9.940;2024-03-07T07:18:37;13.77;;;13.67;;
9270;SDS011;4673;53.458;9.940;2024-03-07T07:21:13;13.33;;;13.23;;
9270;SDS011;4673;53.458;9.940;2024-03-07T07:23:43;13.00;;;12.90;;
9270;SDS011;4673;53.458;9.940;2024-03-07T07:26:12;12.47;;;12.37;;
9270;SDS011;4673;53.458;9.940;2024-03-07T07:28:41;11.30;;;11.30;;
9270;SDS011;4673;53.458;9.940;2024-03-07T07:31:09;13.77;;;13.67;;
9270;SDS011;4673;53.458;9.940;2024-03-07T07:33:38;11.50;;;11.43;;
9270;SDS011;4673;53.458;9.940;2024-03-07T07:36:04;11.33;;;11.33;;
9270;SDS011;4673;53.458;9.940;2024-03-07T07:38:35;10.53;;;10.43;;
9270;SDS011;4673;53.458;9.940;2024-03-07T07:41:01;9.97;;;9.97;;
9270;SDS011;4673;53.458;9.940;2024-03-07T07:43:27;9.67;;;9.67;;
9270;SDS011;4673;53.458;9.940;2024-03-07T07:45:53;9.63;;;9.63;;
9270;SDS011;4673;53.458;9.940;2024-03-07T07:51:15;9.80;;;9.80;;
9270;SDS011;4673;53.458;9.940;2024-03-07T07:53:41;10.40;;;10.40;;
9270;SDS011;4673;53.458;9.940;2024-03-07T07:56:08;11.17;;;11.07;;
9270;SDS011;4673;53.458;9.940;2024-03-07T07:58:41;10.70;;;10.70;;
9270;SDS011;4673;53.458;9.940;2024-03-07T08:01:14;12.13;;;12.13;;
9270;SDS011;4673;53.458;9.940;2024-03-07T08:03:48;10.00;;;10.00;;
9270;SDS011;4673;53.458;9.940;2024-03-07T08:06:17;9.33;;;9.33;;
9270;SDS011;4673;53.458;9.940;2024-03-07T08:08:42;9.67;;;9.67;;
9270;SDS011;4673;53.458;9.940;2024-03-07T08:11:11;9.30;;;9.30;;
9270;SDS011;4673;53.458;9.940;2024-03-07T08:13:42;9.17;;;9.17;;
9270;SDS011;4673;53.458;9.940;2024-03-07T08:16:09;9.93;;;9.93;;
9270;SDS011;4673;53.458;9.940;2024-03-07T08:18:38;10.47;;;10.47;;
9270;SDS011;4673;53.458;9.940;2024-03-07T08:21:04;9.37;;;9.27;;
9270;SDS011;4673;53.458;9.940;2024-03-07T08:26:09;8.70;;;8.70;;
9270;SDS011;4673;53.458;9.940;2024-03-07T08:28:41;8.90;;;8.90;;
9270;SDS011;4673;53.458;9.940;2024-03-07T08:31:17;9.03;;;9.03;;
9270;SDS011;4673;53.458;9.940;2024-03-07T08:33:52;9.93;;;9.93;;
9270;SDS011;4673;53.458;9.940;2024-03-07T08:36:21;10.10;;;10.10;;
9270;SDS011;4673;53.458;9.940;2024-03-07T08:38:52;7.93;;;7.93;;
9270;SDS011;4673;53.458;9.940;2024-03-07T08:41:32;8.43;;;8.43;;
9270;SDS011;4673;53.458;9.940;2024-03-07T08:44:11;9.00;;;9.00;;
9270;SDS011;4673;53.458;9.940;2024-03-07T08:46:38;8.77;;;8.77;;
9270;SDS011;4673;53.458;9.940;2024-03-07T08:49:04;9.43;;;9.43;;
9270;SDS011;4673;53.458;9.940;2024-03-07T08:51:42;8.93;;;8.93;;
9270;SDS011;4673;53.458;9.940;2024-03-07T08:54:17;9.43;;;9.43;;
9270;SDS011;4673;53.458;9.940;2024-03-07T08:56:59;8.57;;;8.57;;
9270;SDS011;4673;53.458;9.940;2024-03-07T08:59:37;9.17;;;9.17;;
9270;SDS011;4673;53.458;9.940;2024-03-07T09:02:06;10.00;;;9.90;;
9270;SDS011;4673;53.458;9.940;2024-03-07T09:04:54;9.13;;;9.13;;
9270;SDS011;4673;53.458;9.940;2024-03-07T09:07:20;9.57;;;9.57;;
9270;SDS011;4673;53.458;9.940;2024-03-07T09:09:45;9.20;;;9.20;;
9270;SDS011;4673;53.458;9.940;2024-03-07T09:12:11;9.33;;;9.33;;
9270;SDS011;4673;53.458;9.940;2024-03-07T09:14:37;8.97;;;8.97;;
9270;SDS011;4673;53.458;9.940;2024-03-07T09:17:03;9.77;;;9.77;;
9270;SDS011;4673;53.458;9.940;2024-03-07T09:19:30;8.83;;;8.83;;
9270;SDS011;4673;53.458;9.940;2024-03-07T09:21:56;8.70;;;8.70;;
9270;SDS011;4673;53.458;9.940;2024-03-07T09:24:21;8.33;;;8.33;;
9270;SDS011;4673;53.458;9.940;2024-03-07T09:26:50;8.03;;;8.03;;
9270;SDS011;4673;53.458;9.940;2024-03-07T09:29:16;8.37;;;8.37;;
9270;SDS011;4673;53.458;9.940;2024-03-07T09:31:43;7.70;;;7.70;;
9270;SDS011;4673;53.458;9.940;2024-03-07T09:34:14;8.23;;;8.23;;
9270;SDS011;4673;53.458;9.940;2024-03-07T09:36:40;7.73;;;7.73;;
9270;SDS011;4673;53.458;9.940;2024-03-07T09:39:08;7.77;;;7.77;;
9270;SDS011;4673;53.458;9.940;2024-03-07T09:41:37;7.70;;;7.70;;
9270;SDS011;4673;53.458;9.940;2024-03-07T09:44:04;6.77;;;6.77;;
9270;SDS011;4673;53.458;9.940;2024-03-07T09:46:30;7.37;;;7.37;;
9270;SDS011;4673;53.458;9.940;2024-03-07T09:48:57;7.20;;;7.20;;
9270;SDS011;4673;53.458;9.940;2024-03-07T09:51:23;7.23;;;7.23;;
9270;SDS011;4673;53.458;9.940;2024-03-07T09:53:50;8.60;;;8.60;;
9270;SDS011;4673;53.458;9.940;2024-03-07T09:56:17;7.93;;;7.93;;
9270;SDS011;4673;53.458;9.940;2024-03-07T09:58:47;7.70;;;7.70;;
9270;SDS011;4673;53.458;9.940;2024-03-07T10:01:15;7.93;;;7.93;;
9270;SDS011;4673;53.458;9.940;2024-03-07T10:03:45;9.27;;;9.27;;
9270;SDS011;4673;53.458;9.940;2024-03-07T10:06:12;8.90;;;8.90;;
9270;SDS011;4673;53.458;9.940;2024-03-07T10:08:40;9.70;;;9.70;;
9270;SDS011;4673;53.458;9.940;2024-03-07T10:11:07;10.57;;;10.47;;
9270;SDS011;4673;53.458;9.940;2024-03-07T10:13:34;9.33;;;9.33;;
9270;SDS011;4673;53.458;9.940;2024-03-07T10:16:03;10.53;;;10.43;;
9270;SDS011;4673;53.458;9.940;2024-03-07T10:18:30;10.03;;;10.03;;
9270;SDS011;4673;53.458;9.940;2024-03-07T10:20:56;10.83;;;10.83;;
9270;SDS011;4673;53.458;9.940;2024-03-07T10:23:23;10.90;;;10.90;;
9270;SDS011;4673;53.458;9.940;2024-03-07T10:25:52;11.77;;;11.67;;
9270;SDS011;4673;53.458;9.940;2024-03-07T10:28:20;10.47;;;10.40;;
9270;SDS011;4673;53.458;9.940;2024-03-07T10:30:46;10.90;;;10.90;;
9270;SDS011;4673;53.458;9.940;2024-03-07T10:33:15;11.65;;;11.55;;
9270;SDS011;4673;53.458;9.940;2024-03-07T10:35:42;11.53;;;11.43;;
9270;SDS011;4673;53.458;9.940;2024-03-07T10:38:11;11.07;;;10.97;;
9270;SDS011;4673;53.458;9.940;2024-03-07T10:40:38;10.40;;;10.37;;
9270;SDS011;4673;53.458;9.940;2024-03-07T10:43:07;10.50;;;10.40;;
9270;SDS011;4673;53.458;9.940;2024-03-07T10:45:37;9.47;;;9.47;;
9270;SDS011;4673;53.458;9.940;2024-03-07T10:48:12;9.83;;;9.83;;
9270;SDS011;4673;53.458;9.940;2024-03-07T11:01:10;8.67;;;8.67;;
9270;SDS011;4673;53.458;9.940;2024-03-07T11:03:38;10.17;;;10.07;;
9270;SDS011;4673;53.458;9.940;2024-03-07T11:06:06;10.23;;;10.23;;
9270;SDS011;4673;53.458;9.940;2024-03-07T11:08:36;9.73;;;9.73;;
9270;SDS011;4673;53.458;9.940;2024-03-07T11:11:02;9.57;;;9.57;;
9270;SDS011;4673;53.458;9.940;2024-03-07T11:13:32;11.13;;;11.07;;
9270;SDS011;4673;53.458;9.940;2024-03-07T11:15:59;10.53;;;10.53;;
9270;SDS011;4673;53.458;9.940;2024-03-07T11:18:26;10.07;;;10.07;;
9270;SDS011;4673;53.458;9.940;2024-03-07T11:20:52;9.97;;;9.97;;
9270;SDS011;4673;53.458;9.940;2024-03-07T11:23:37;11.00;;;10.90;;
9270;SDS011;4673;53.458;9.940;2024-03-07T11:26:10;10.53;;;10.53;;
9270;SDS011;4673;53.458;9.940;2024-03-07T11:28:40;10.80;;;10.80;;
9270;SDS011;4673;53.458;9.940;2024-03-07T11:31:07;10.20;;;10.20;;
9270;SDS011;4673;53.458;9.940;2024-03-07T11:33:34;10.23;;;10.23;;
9270;SDS011;4673;53.458;9.940;2024-03-07T11:36:02;10.90;;;10.90;;
9270;SDS011;4673;53.458;9.940;2024-03-07T11:38:32;10.13;;;10.13;;
9270;SDS011;4673;53.458;9.940;2024-03-07T11:41:00;11.00;;;10.90;;
9270;SDS011;4673;53.458;9.940;2024-03-07T11:43:27;10.80;;;10.80;;
9270;SDS011;4673;53.458;9.940;2024-03-07T11:45:53;10.43;;;10.43;;
9270;SDS011;4673;53.458;9.940;2024-03-07T11:48:22;11.93;;;11.87;;
9270;SDS011;4673;53.458;9.940;2024-03-07T11:50:48;10.53;;;10.53;;
9270;SDS011;4673;53.458;9.940;2024-03-07T11:53:15;12.13;;;12.03;;
9270;SDS011;4673;53.458;9.940;2024-03-07T11:55:42;11.57;;;11.47;;
9270;SDS011;4673;53.458;9.940;2024-03-07T11:58:14;11.40;;;11.37;;
9270;SDS011;4673;53.458;9.940;2024-03-07T12:00:46;12.30;;;12.20;;
9270;SDS011;4673;53.458;9.940;2024-03-07T12:03:13;12.00;;;11.90;;
9270;SDS011;4673;53.458;9.940;2024-03-07T12:05:42;11.90;;;11.80;;
9270;SDS011;4673;53.458;9.940;2024-03-07T12:08:08;11.17;;;11.17;;
9270;SDS011;4673;53.458;9.940;2024-03-07T12:10:39;11.93;;;11.83;;
9270;SDS011;4673;53.458;9.940;2024-03-07T12:13:12;10.63;;;10.63;;
9270;SDS011;4673;53.458;9.940;2024-03-07T12:15:42;11.37;;;11.27;;
9270;SDS011;4673;53.458;9.940;2024-03-07T12:18:08;10.80;;;10.77;;
9270;SDS011;4673;53.458;9.940;2024-03-07T12:20:36;11.77;;;11.73;;
9270;SDS011;4673;53.458;9.940;2024-03-07T12:23:02;11.27;;;11.27;;
9270;SDS011;4673;53.458;9.940;2024-03-07T12:25:30;11.00;;;10.93;;
9270;SDS011;4673;53.458;9.940;2024-03-07T12:30:31;11.10;;;11.10;;
9270;SDS011;4673;53.458;9.940;2024-03-07T12:32:59;12.03;;;11.93;;
9270;SDS011;4673;53.458;9.940;2024-03-07T12:35:25;12.07;;;12.00;;
9270;SDS011;4673;53.458;9.940;2024-03-07T12:37:52;11.43;;;11.33;;
9270;SDS011;4673;53.458;9.940;2024-03-07T12:40:19;11.73;;;11.63;;
9270;SDS011;4673;53.458;9.940;2024-03-07T12:42:48;11.90;;;11.80;;
9270;SDS011;4673;53.458;9.940;2024-03-07T12:45:16;11.50;;;11.50;;
9270;SDS011;4673;53.458;9.940;2024-03-07T12:47:48;11.87;;;11.77;;
9270;SDS011;4673;53.458;9.940;2024-03-07T12:50:18;10.93;;;10.93;;
9270;SDS011;4673;53.458;9.940;2024-03-07T12:52:47;11.97;;;11.87;;
9270;SDS011;4673;53.458;9.940;2024-03-07T12:55:16;11.43;;;11.37;;
9270;SDS011;4673;53.458;9.940;2024-03-07T12:57:48;12.87;;;12.77;;
9270;SDS011;4673;53.458;9.940;2024-03-07T13:00:15;12.03;;;11.93;;
9270;SDS011;4673;53.458;9.940;2024-03-07T13:02:47;13.17;;;13.07;;
9270;SDS011;4673;53.458;9.940;2024-03-07T13:05:13;13.00;;;12.90;;
9270;SDS011;4673;53.458;9.940;2024-03-07T13:07:47;13.23;;;13.13;;
9270;SDS011;4673;53.458;9.940;2024-03-07T13:10:14;12.43;;;12.33;;
9270;SDS011;4673;53.458;9.940;2024-03-07T13:12:41;12.17;;;12.07;;
9270;SDS011;4673;53.458;9.940;2024-03-07T13:15:10;13.30;;;13.20;;
9270;SDS011;4673;53.458;9.940;2024-03-07T13:17:36;12.00;;;11.90;;
9270;SDS011;4673;53.458;9.940;2024-03-07T13:20:01;11.70;;;11.63;;
9270;SDS011;4673;53.458;9.940;2024-03-07T13:22:27;13.13;;;13.03;;
9270;SDS011;4673;53.458;9.940;2024-03-07T13:24:53;13.57;;;13.47;;
9270;SDS011;4673;53.458;9.940;2024-03-07T13:27:18;13.80;;;13.70;;
9270;SDS011;4673;53.458;9.940;2024-03-07T13:29:53;12.40;;;12.30;;
9270;SDS011;4673;53.458;9.940;2024-03-07T13:32:18;11.93;;;11.87;;
9270;SDS011;4673;53.458;9.940;2024-03-07T13:34:44;13.87;;;13.77;;
9270;SDS011;4673;53.458;9.940;2024-03-07T13:37:10;13.10;;;13.00;;
9270;SDS011;4673;53.458;9.940;2024-03-07T13:39:39;12.40;;;12.30;;
9270;SDS011;4673;53.458;9.940;2024-03-07T13:42:04;13.43;;;13.33;;
9270;SDS011;4673;53.458;9.940;2024-03-07T13:44:30;12.63;;;12.53;;
9270;SDS011;4673;53.458;9.940;2024-03-07T13:46:55;13.83;;;13.73;;
9270;SDS011;4673;53.458;9.940;2024-03-07T13:49:24;13.60;;;13.50;;
9270;SDS011;4673;53.458;9.940;2024-03-07T13:51:53;14.57;;;14.47;;
9270;SDS011;4673;53.458;9.940;2024-03-07T13:54:25;12.83;;;12.73;;
9270;SDS011;4673;53.458;9.940;2024-03-07T14:08:59;12.83;;;12.73;;
9270;SDS011;4673;53.458;9.940;2024-03-07T14:29:05;12.80;;;12.70;;
9270;SDS011;4673;53.458;9.940;2024-03-07T14:31:46;13.47;;;13.37;;
9270;SDS011;4673;53.458;9.940;2024-03-07T14:36:57;12.87;;;12.77;;
9270;SDS011;4673;53.458;9.940;2024-03-07T14:40:30;13.43;;;13.33;;
9270;SDS011;4673;53.458;9.940;2024-03-07T14:42:51;12.23;;;12.23;;
9270;SDS011;4673;53.458;9.940;2024-03-07T14:45:23;12.70;;;12.60;;
9270;SDS011;4673;53.458;9.940;2024-03-07T14:47:53;12.97;;;12.87;;
9270;SDS011;4673;53.458;9.940;2024-03-07T14:50:19;14.17;;;14.07;;
9270;SDS011;4673;53.458;9.940;2024-03-07T14:52:49;14.07;;;13.97;;
9270;SDS011;4673;53.458;9.940;2024-03-07T14:55:15;13.03;;;12.93;;
9270;SDS011;4673;53.458;9.940;2024-03-07T14:57:44;12.93;;;12.83;;
9270;SDS011;4673;53.458;9.940;2024-03-07T15:00:11;14.27;;;14.17;;
9270;SDS011;4673;53.458;9.940;2024-03-07T15:02:52;13.90;;;13.80;;
9270;SDS011;4673;53.458;9.940;2024-03-07T15:05:22;12.93;;;12.83;;
9270;SDS011;4673;53.458;9.940;2024-03-07T15:07:49;12.53;;;12.43;;
9270;SDS011;4673;53.458;9.940;2024-03-07T15:10:32;12.57;;;12.47;;
9270;SDS011;4673;53.458;9.940;2024-03-07T15:12:59;12.87;;;12.77;;
9270;SDS011;4673;53.458;9.940;2024-03-07T15:15:25;13.27;;;13.17;;
9270;SDS011;4673;53.458;9.940;2024-03-07T15:17:53;13.27;;;13.17;;
9270;SDS011;4673;53.458;9.940;2024-03-07T15:20:19;13.07;;;12.97;;
9270;SDS011;4673;53.458;9.940;2024-03-07T15:22:48;13.50;;;13.40;;
9270;SDS011;4673;53.458;9.940;2024-03-07T15:25:17;13.67;;;13.57;;
9270;SDS011;4673;53.458;9.940;2024-03-07T15:27:44;12.83;;;12.73;;
9270;SDS011;4673;53.458;9.940;2024-03-07T15:30:14;13.40;;;13.30;;
9270;SDS011;4673;53.458;9.940;2024-03-07T15:32:44;13.63;;;13.53;;
9270;SDS011;4673;53.458;9.940;2024-03-07T15:35:11;13.27;;;13.17;;
9270;SDS011;4673;53.458;9.940;2024-03-07T15:37:38;13.37;;;13.27;;
9270;SDS011;4673;53.458;9.940;2024-03-07T15:40:09;13.13;;;13.03;;
9270;SDS011;4673;53.458;9.940;2024-03-07T15:42:43;13.67;;;13.57;;
9270;SDS011;4673;53.458;9.940;2024-03-07T15:45:13;12.87;;;12.77;;
9270;SDS011;4673;53.458;9.940;2024-03-07T15:47:51;12.80;;;12.70;;
9270;SDS011;4673;53.458;9.940;2024-03-07T15:50:18;14.20;;;14.10;;